sensor_id;sensor_type;location;lat;lon;timestamp;pressure;altitude;pressure_sealevel;temperature;humidity
12077;BME280;12420;42.676;23.262;2022-08-01T00:01:16;94527.28;;;21.63;70.82
12077;BME280;12420;42.676;23.262;2022-08-01T00:03:43;94506.63;;;21.49;68.85
12077;BME280;12420;42.676;23.262;2022-08-01T00:06:10;94528.72;;;21.86;69.19
12077;BME280;12420;42.676;23.262;2022-08-01T00:08:37;94512.16;;;21.80;68.99
12077;BME280;12420;42.676;23.262;2022-08-01T00:11:04;94522.81;;;21.82;69.29
12077;BME280;12420;42.676;23.262;2022-08-01T00:13:34;94520.22;;;21.74;69.75
12077;BME280;12420;42.676;23.262;2022-08-01T00:16:03;94517.88;;;21.71;70.13
12077;BME280;12420;42.676;23.262;2022-08-01T00:18:30;94513.97;;;21.76;69.64
12077;BME280;12420;42.676;23.262;2022-08-01T00:20:57;94541.28;;;21.73;69.45
12077;BME280;12420;42.676;23.262;2022-08-01T00:23:23;94520.69;;;21.71;69.34
12077;BME280;12420;42.676;23.262;2022-08-01T00:25:50;94526.19;;;21.68;69.49
12077;BME280;12420;42.676;23.262;2022-08-01T00:28:17;94507.03;;;21.55;69.37
12077;BME280;12420;42.676;23.262;2022-08-01T00:30:45;94521.69;;;21.75;69.55
12077;BME280;12420;42.676;23.262;2022-08-01T00:33:12;94503.72;;;21.59;70.03
12077;BME280;12420;42.676;23.262;2022-08-01T00:35:38;94487.72;;;21.40;69.50
12077;BME280;12420;42.676;23.262;2022-08-01T00:38:05;94522.28;;;21.74;68.17
12077;BME280;12420;42.676;23.262;2022-08-01T00:40:32;94514.94;;;21.68;69.19
12077;BME280;12420;42.676;23.262;2022-08-01T00:42:59;94507.28;;;21.59;68.32
12077;BME280;12420;42.676;23.262;2022-08-01T00:45:26;94516.38;;;21.70;70.47
12077;BME280;12420;42.676;23.262;2022-08-01T00:47:54;94522.53;;;21.78;68.81
12077;BME280;12420;42.676;23.262;2022-08-01T00:50:21;94519.81;;;21.68;69.95
12077;BME280;12420;42.676;23.262;2022-08-01T00:52:48;94517.91;;;21.82;69.22
12077;BME280;12420;42.676;23.262;2022-08-01T00:55:16;94521.59;;;21.85;68.52
12077;BME280;12420;42.676;23.262;2022-08-01T00:57:44;94524.78;;;21.79;69.07
12077;BME280;12420;42.676;23.262;2022-08-01T01:00:12;94515.69;;;21.16;73.43
12077;BME280;12420;42.676;23.262;2022-08-01T01:02:40;94514.00;;;21.01;74.97
12077;BME280;12420;42.676;23.262;2022-08-01T01:05:09;94500.81;;;20.73;75.87
12077;BME280;12420;42.676;23.262;2022-08-01T01:07:45;94497.66;;;20.78;76.00
12077;BME280;12420;42.676;23.262;2022-08-01T01:10:18;94495.03;;;20.71;76.54
12077;BME280;12420;42.676;23.262;2022-08-01T01:12:51;94498.31;;;20.67;74.56
12077;BME280;12420;42.676;23.262;2022-08-01T01:15:22;94491.53;;;20.60;76.94
12077;BME280;12420;42.676;23.262;2022-08-01T01:17:53;94489.19;;;20.57;77.93
12077;BME280;12420;42.676;23.262;2022-08-01T01:20:30;94489.47;;;20.61;75.91
12077;BME280;12420;42.676;23.262;2022-08-01T01:23:12;94493.16;;;20.64;74.63
12077;BME280;12420;42.676;23.262;2022-08-01T01:25:51;94468.91;;;20.49;73.46
12077;BME280;12420;42.676;23.262;2022-08-01T01:28:28;94434.53;;;20.19;73.06
12077;BME280;12420;42.676;23.262;2022-08-01T01:30:59;94487.41;;;20.52;72.19
12077;BME280;12420;42.676;23.262;2022-08-01T01:33:27;94493.47;;;20.58;71.40
12077;BME280;12420;42.676;23.262;2022-08-01T01:35:59;94479.38;;;20.68;71.25
12077;BME280;12420;42.676;23.262;2022-08-01T01:38:29;94470.09;;;20.55;68.98
12077;BME280;12420;42.676;23.262;2022-08-01T01:41:00;94420.94;;;20.25;70.46
12077;BME280;12420;42.676;23.262;2022-08-01T01:43:29;94466.38;;;20.63;68.12
12077;BME280;12420;42.676;23.262;2022-08-01T01:45:58;94457.47;;;20.66;67.05
12077;BME280;12420;42.676;23.262;2022-08-01T01:48:27;94461.34;;;20.61;65.28
12077;BME280;12420;42.676;23.262;2022-08-01T01:50:56;94416.19;;;20.28;64.06
12077;BME280;12420;42.676;23.262;2022-08-01T01:53:24;94458.78;;;20.24;63.65
12077;BME280;12420;42.676;23.262;2022-08-01T01:55:53;94454.13;;;20.48;63.93
12077;BME280;12420;42.676;23.262;2022-08-01T01:58:22;94448.88;;;20.33;64.88
12077;BME280;12420;42.676;23.262;2022-08-01T02:00:52;94450.31;;;20.34;64.25
12077;BME280;12420;42.676;23.262;2022-08-01T02:03:21;94457.81;;;20.51;65.05
12077;BME280;12420;42.676;23.262;2022-08-01T02:05:50;94456.31;;;20.59;64.17
12077;BME280;12420;42.676;23.262;2022-08-01T02:08:18;94433.84;;;20.50;63.25
12077;BME280;12420;42.676;23.262;2022-08-01T02:10:45;94429.13;;;20.43;62.65
12077;BME280;12420;42.676;23.262;2022-08-01T02:13:26;94437.28;;;20.38;62.59
12077;BME280;12420;42.676;23.262;2022-08-01T02:15:54;94446.41;;;20.58;62.09
12077;BME280;12420;42.676;23.262;2022-08-01T02:18:22;94442.28;;;20.50;63.18
12077;BME280;12420;42.676;23.262;2022-08-01T02:20:51;94436.66;;;20.50;63.41
12077;BME280;12420;42.676;23.262;2022-08-01T02:23:19;94435.03;;;20.47;61.29
12077;BME280;12420;42.676;23.262;2022-08-01T02:25:50;94439.19;;;20.46;61.15
12077;BME280;12420;42.676;23.262;2022-08-01T02:28:23;94399.91;;;20.26;61.02
12077;BME280;12420;42.676;23.262;2022-08-01T02:31:01;94406.09;;;20.34;61.93
12077;BME280;12420;42.676;23.262;2022-08-01T02:33:37;94411.28;;;20.38;59.82
12077;BME280;12420;42.676;23.262;2022-08-01T02:36:06;94441.94;;;20.65;60.36
12077;BME280;12420;42.676;23.262;2022-08-01T02:38:35;94432.38;;;20.49;61.23
12077;BME280;12420;42.676;23.262;2022-08-01T02:41:07;94429.06;;;20.62;61.21
12077;BME280;12420;42.676;23.262;2022-08-01T02:43:37;94446.63;;;20.72;60.40
12077;BME280;12420;42.676;23.262;2022-08-01T02:46:09;94447.56;;;20.65;58.64
12077;BME280;12420;42.676;23.262;2022-08-01T02:48:41;94414.16;;;20.50;60.65
12077;BME280;12420;42.676;23.262;2022-08-01T02:51:10;94443.41;;;20.66;59.38
12077;BME280;12420;42.676;23.262;2022-08-01T02:53:38;94423.06;;;20.56;60.49
12077;BME280;12420;42.676;23.262;2022-08-01T02:56:08;94436.25;;;20.75;59.58
12077;BME280;12420;42.676;23.262;2022-08-01T02:58:36;94403.97;;;20.45;59.18
12077;BME280;12420;42.676;23.262;2022-08-01T03:01:04;94423.78;;;20.56;59.04
12077;BME280;12420;42.676;23.262;2022-08-01T03:03:32;94441.41;;;20.78;60.78
12077;BME280;12420;42.676;23.262;2022-08-01T03:06:04;94443.44;;;20.88;61.02
12077;BME280;12420;42.676;23.262;2022-08-01T03:08:33;94441.41;;;20.78;56.75
12077;BME280;12420;42.676;23.262;2022-08-01T03:11:02;94432.09;;;20.76;58.41
12077;BME280;12420;42.676;23.262;2022-08-01T03:13:31;94407.78;;;20.59;58.42
12077;BME280;12420;42.676;23.262;2022-08-01T03:15:59;94427.78;;;20.85;59.14
12077;BME280;12420;42.676;23.262;2022-08-01T03:18:28;94446.34;;;20.99;59.25
12077;BME280;12420;42.676;23.262;2022-08-01T03:20:57;94458.41;;;21.12;59.15
12077;BME280;12420;42.676;23.262;2022-08-01T03:23:28;94449.28;;;21.23;59.58
12077;BME280;12420;42.676;23.262;2022-08-01T03:25:57;94447.13;;;21.33;58.43
12077;BME280;12420;42.676;23.262;2022-08-01T03:28:25;94409.56;;;21.07;59.64
12077;BME280;12420;42.676;23.262;2022-08-01T03:30:53;94447.69;;;21.41;57.61
12077;BME280;12420;42.676;23.262;2022-08-01T03:33:20;94406.63;;;21.05;55.17
12077;BME280;12420;42.676;23.262;2022-08-01T03:35:49;94435.28;;;21.13;57.60
12077;BME280;12420;42.676;23.262;2022-08-01T03:38:23;94363.94;;;20.87;57.83
12077;BME280;12420;42.676;23.262;2022-08-01T03:40:54;94441.13;;;21.49;57.24
12077;BME280;12420;42.676;23.262;2022-08-01T03:43:26;94456.22;;;21.65;55.08
12077;BME280;12420;42.676;23.262;2022-08-01T03:46:01;94455.16;;;21.70;56.75
12077;BME280;12420;42.676;23.262;2022-08-01T03:48:32;94459.81;;;21.65;55.58
12077;BME280;12420;42.676;23.262;2022-08-01T03:51:02;94413.31;;;21.43;55.66
12077;BME280;12420;42.676;23.262;2022-08-01T03:53:38;94444.44;;;21.78;58.38
12077;BME280;12420;42.676;23.262;2022-08-01T03:56:08;94421.72;;;21.64;55.50
12077;BME280;12420;42.676;23.262;2022-08-01T03:58:38;94405.91;;;21.59;54.81
12077;BME280;12420;42.676;23.262;2022-08-01T04:01:06;94428.69;;;21.63;54.40
12077;BME280;12420;42.676;23.262;2022-08-01T04:03:35;94425.75;;;21.61;54.27
12077;BME280;12420;42.676;23.262;2022-08-01T04:06:04;94468.19;;;21.87;54.31
12077;BME280;12420;42.676;23.262;2022-08-01T04:08:35;94437.53;;;21.70;53.77
12077;BME280;12420;42.676;23.262;2022-08-01T04:14:29;94460.44;;;22.09;54.24
12077;BME280;12420;42.676;23.262;2022-08-01T04:16:55;94399.56;;;21.71;55.33
12077;BME280;12420;42.676;23.262;2022-08-01T04:19:22;94385.50;;;21.82;53.30
12077;BME280;12420;42.676;23.262;2022-08-01T04:21:49;94448.94;;;22.17;52.41
12077;BME280;12420;42.676;23.262;2022-08-01T04:24:18;94390.69;;;21.86;52.67
12077;BME280;12420;42.676;23.262;2022-08-01T04:26:47;94438.69;;;22.33;53.30
12077;BME280;12420;42.676;23.262;2022-08-01T04:29:17;94465.31;;;22.65;52.75
12077;BME280;12420;42.676;23.262;2022-08-01T04:31:48;94459.56;;;22.75;53.74
12077;BME280;12420;42.676;23.262;2022-08-01T04:34:17;94458.94;;;22.88;53.72
12077;BME280;12420;42.676;23.262;2022-08-01T04:36:47;94372.50;;;22.34;54.23
12077;BME280;12420;42.676;23.262;2022-08-01T04:39:16;94464.34;;;23.08;52.62
12077;BME280;12420;42.676;23.262;2022-08-01T04:41:46;94449.84;;;23.02;53.86
12077;BME280;12420;42.676;23.262;2022-08-01T04:44:13;94458.28;;;23.25;51.80
12077;BME280;12420;42.676;23.262;2022-08-01T04:46:41;94466.13;;;23.38;50.84
12077;BME280;12420;42.676;23.262;2022-08-01T04:49:10;94460.75;;;23.31;50.31
12077;BME280;12420;42.676;23.262;2022-08-01T04:51:49;94471.38;;;23.44;49.80
12077;BME280;12420;42.676;23.262;2022-08-01T04:54:16;94450.25;;;23.45;50.29
12077;BME280;12420;42.676;23.262;2022-08-01T04:56:43;94499.78;;;23.34;49.30
12077;BME280;12420;42.676;23.262;2022-08-01T04:59:11;94448.97;;;23.23;50.77
12077;BME280;12420;42.676;23.262;2022-08-01T05:01:55;94466.31;;;23.54;50.90
12077;BME280;12420;42.676;23.262;2022-08-01T05:04:23;94465.75;;;23.32;50.00
12077;BME280;12420;42.676;23.262;2022-08-01T05:06:51;94471.88;;;23.40;49.09
12077;BME280;12420;42.676;23.262;2022-08-01T05:09:18;94484.81;;;23.20;50.44
12077;BME280;12420;42.676;23.262;2022-08-01T05:11:46;94462.13;;;23.18;50.66
12077;BME280;12420;42.676;23.262;2022-08-01T05:14:13;94372.50;;;22.34;57.77
12077;BME280;12420;42.676;23.262;2022-08-01T05:16:40;94440.66;;;22.66;56.39
12077;BME280;12420;42.676;23.262;2022-08-01T05:19:07;94455.13;;;22.95;53.85
12077;BME280;12420;42.676;23.262;2022-08-01T05:21:35;94458.19;;;23.11;51.64
12077;BME280;12420;42.676;23.262;2022-08-01T05:24:03;94414.63;;;22.91;49.32
12077;BME280;12420;42.676;23.262;2022-08-01T05:26:30;94460.78;;;22.95;49.04
12077;BME280;12420;42.676;23.262;2022-08-01T05:28:58;94364.75;;;22.46;49.86
12077;BME280;12420;42.676;23.262;2022-08-01T05:31:25;94478.94;;;23.16;50.25
12077;BME280;12420;42.676;23.262;2022-08-01T05:33:52;94461.63;;;23.10;50.80
12077;BME280;12420;42.676;23.262;2022-08-01T05:36:20;94460.75;;;23.19;50.28
12077;BME280;12420;42.676;23.262;2022-08-01T05:38:48;94457.88;;;23.43;49.65
12077;BME280;12420;42.676;23.262;2022-08-01T05:41:15;94457.00;;;23.52;49.34
12077;BME280;12420;42.676;23.262;2022-08-01T05:43:42;94462.13;;;23.55;49.13
12077;BME280;12420;42.676;23.262;2022-08-01T05:46:09;94467.50;;;23.63;48.85
12077;BME280;12420;42.676;23.262;2022-08-01T05:48:36;94450.44;;;23.24;49.24
12077;BME280;12420;42.676;23.262;2022-08-01T05:51:03;94434.00;;;22.96;49.50
12077;BME280;12420;42.676;23.262;2022-08-01T05:53:30;94476.25;;;23.18;49.86
12077;BME280;12420;42.676;23.262;2022-08-01T05:56:03;94471.28;;;23.30;50.30
12077;BME280;12420;42.676;23.262;2022-08-01T05:58:30;94455.81;;;23.31;50.03
12077;BME280;12420;42.676;23.262;2022-08-01T06:01:02;94467.13;;;23.31;50.43
12077;BME280;12420;42.676;23.262;2022-08-01T06:03:29;94480.06;;;23.48;48.87
12077;BME280;12420;42.676;23.262;2022-08-01T06:05:59;94475.00;;;23.21;49.28
12077;BME280;12420;42.676;23.262;2022-08-01T06:08:26;94459.03;;;22.67;50.40
12077;BME280;12420;42.676;23.262;2022-08-01T06:10:53;94475.03;;;22.98;50.30
12077;BME280;12420;42.676;23.262;2022-08-01T06:13:21;94478.09;;;23.13;50.82
12077;BME280;12420;42.676;23.262;2022-08-01T06:15:48;94493.19;;;23.06;49.65
12077;BME280;12420;42.676;23.262;2022-08-01T06:18:15;94490.19;;;22.69;50.77
12077;BME280;12420;42.676;23.262;2022-08-01T06:20:42;94469.97;;;22.61;51.21
12077;BME280;12420;42.676;23.262;2022-08-01T06:23:09;94444.72;;;22.63;51.92
12077;BME280;12420;42.676;23.262;2022-08-01T06:25:39;94475.63;;;23.08;51.18
12077;BME280;12420;42.676;23.262;2022-08-01T06:28:06;94479.66;;;23.05;51.65
12077;BME280;12420;42.676;23.262;2022-08-01T06:30:34;94418.44;;;22.95;51.03
12077;BME280;12420;42.676;23.262;2022-08-01T06:33:01;94476.78;;;23.40;50.45
12077;BME280;12420;42.676;23.262;2022-08-01T06:35:28;94466.06;;;23.62;50.57
12077;BME280;12420;42.676;23.262;2022-08-01T06:37:56;94471.75;;;23.88;50.91
12077;BME280;12420;42.676;23.262;2022-08-01T06:40:23;94400.81;;;23.32;49.74
12077;BME280;12420;42.676;23.262;2022-08-01T06:42:50;94467.09;;;23.80;50.52
12077;BME280;12420;42.676;23.262;2022-08-01T06:45:17;94436.44;;;23.63;49.15
12077;BME280;12420;42.676;23.262;2022-08-01T06:47:48;94462.41;;;23.48;50.61
12077;BME280;12420;42.676;23.262;2022-08-01T06:50:17;94462.09;;;23.67;50.86
12077;BME280;12420;42.676;23.262;2022-08-01T06:52:44;94466.56;;;23.58;51.14
12077;BME280;12420;42.676;23.262;2022-08-01T06:55:11;94461.22;;;23.39;51.22
12077;BME280;12420;42.676;23.262;2022-08-01T06:57:45;94459.16;;;23.65;51.46
12077;BME280;12420;42.676;23.262;2022-08-01T07:00:12;94420.47;;;23.56;51.16
12077;BME280;12420;42.676;23.262;2022-08-01T07:02:41;94447.88;;;23.91;50.48
12077;BME280;12420;42.676;23.262;2022-08-01T07:05:10;94469.09;;;23.78;50.45
12077;BME280;12420;42.676;23.262;2022-08-01T07:07:37;94421.63;;;23.02;52.78
12077;BME280;12420;42.676;23.262;2022-08-01T07:10:05;94450.91;;;23.32;52.58
12077;BME280;12420;42.676;23.262;2022-08-01T07:12:33;94436.66;;;23.42;53.03
12077;BME280;12420;42.676;23.262;2022-08-01T07:15:02;94421.56;;;23.25;53.59
12077;BME280;12420;42.676;23.262;2022-08-01T07:17:30;94468.56;;;23.44;53.19
12077;BME280;12420;42.676;23.262;2022-08-01T07:19:57;94442.44;;;23.32;53.89
12077;BME280;12420;42.676;23.262;2022-08-01T07:22:25;94449.19;;;23.38;54.18
12077;BME280;12420;42.676;23.262;2022-08-01T07:24:52;94430.56;;;23.22;53.67
12077;BME280;12420;42.676;23.262;2022-08-01T07:27:19;94461.84;;;23.63;53.99
12077;BME280;12420;42.676;23.262;2022-08-01T07:29:46;94475.94;;;23.37;53.39
12077;BME280;12420;42.676;23.262;2022-08-01T07:32:13;94460.47;;;23.38;53.02
12077;BME280;12420;42.676;23.262;2022-08-01T07:34:39;94469.22;;;23.68;53.17
12077;BME280;12420;42.676;23.262;2022-08-01T07:37:06;94452.34;;;24.08;53.71
12077;BME280;12420;42.676;23.262;2022-08-01T07:39:34;94443.59;;;23.90;52.11
12077;BME280;12420;42.676;23.262;2022-08-01T07:42:01;94461.81;;;24.12;52.06
12077;BME280;12420;42.676;23.262;2022-08-01T07:44:28;94451.78;;;24.23;51.56
12077;BME280;12420;42.676;23.262;2022-08-01T07:46:55;94451.09;;;24.11;51.39
12077;BME280;12420;42.676;23.262;2022-08-01T07:49:22;94469.88;;;24.18;49.33
12077;BME280;12420;42.676;23.262;2022-08-01T07:51:49;94439.09;;;23.85;50.87
12077;BME280;12420;42.676;23.262;2022-08-01T07:54:16;94438.69;;;23.53;51.09
12077;BME280;12420;42.676;23.262;2022-08-01T07:56:44;94470.25;;;23.61;51.00
12077;BME280;12420;42.676;23.262;2022-08-01T07:59:11;94458.38;;;23.39;52.53
12077;BME280;12420;42.676;23.262;2022-08-01T08:01:37;94451.44;;;22.81;52.85
12077;BME280;12420;42.676;23.262;2022-08-01T08:04:04;94475.75;;;22.98;53.55
12077;BME280;12420;42.676;23.262;2022-08-01T08:06:31;94458.19;;;23.00;54.15
12077;BME280;12420;42.676;23.262;2022-08-01T08:08:58;94456.69;;;23.22;53.82
12077;BME280;12420;42.676;23.262;2022-08-01T08:11:25;94473.50;;;23.20;53.92
12077;BME280;12420;42.676;23.262;2022-08-01T08:13:53;94441.50;;;22.92;54.30
12077;BME280;12420;42.676;23.262;2022-08-01T08:16:20;94446.19;;;22.87;53.45
12077;BME280;12420;42.676;23.262;2022-08-01T08:18:50;94465.16;;;23.22;53.91
12077;BME280;12420;42.676;23.262;2022-08-01T08:21:17;94464.06;;;23.27;54.18
12077;BME280;12420;42.676;23.262;2022-08-01T08:23:43;94476.44;;;23.34;53.54
12077;BME280;12420;42.676;23.262;2022-08-01T08:26:28;94457.56;;;23.62;53.28
12077;BME280;12420;42.676;23.262;2022-08-01T08:28:56;94425.53;;;23.57;53.05
12077;BME280;12420;42.676;23.262;2022-08-01T08:31:23;94448.16;;;23.83;52.83
12077;BME280;12420;42.676;23.262;2022-08-01T08:33:55;94457.78;;;24.03;52.38
12077;BME280;12420;42.676;23.262;2022-08-01T08:36:22;94458.03;;;24.21;51.81
12077;BME280;12420;42.676;23.262;2022-08-01T08:38:49;94475.72;;;24.08;49.88
12077;BME280;12420;42.676;23.262;2022-08-01T08:41:16;94450.03;;;23.78;51.09
12077;BME280;12420;42.676;23.262;2022-08-01T08:43:43;94452.66;;;23.74;49.99
12077;BME280;12420;42.676;23.262;2022-08-01T08:46:11;94386.06;;;23.34;50.24
12077;BME280;12420;42.676;23.262;2022-08-01T08:48:42;94332.16;;;23.04;49.70
12077;BME280;12420;42.676;23.262;2022-08-01T08:51:11;94434.28;;;23.87;49.19
12077;BME280;12420;42.676;23.262;2022-08-01T08:53:40;94391.47;;;23.67;50.32
12077;BME280;12420;42.676;23.262;2022-08-01T08:56:10;94448.69;;;24.05;48.61
12077;BME280;12420;42.676;23.262;2022-08-01T08:58:38;94451.41;;;24.03;48.14
12077;BME280;12420;42.676;23.262;2022-08-01T09:01:06;94425.66;;;23.59;47.10
12077;BME280;12420;42.676;23.262;2022-08-01T09:03:35;94426.47;;;23.74;49.45
12077;BME280;12420;42.676;23.262;2022-08-01T09:06:03;94420.06;;;23.73;47.04
12077;BME280;12420;42.676;23.262;2022-08-01T09:08:30;94424.63;;;23.67;48.65
12077;BME280;12420;42.676;23.262;2022-08-01T09:10:57;94421.03;;;23.78;49.07
12077;BME280;12420;42.676;23.262;2022-08-01T09:13:23;94443.06;;;24.19;49.68
12077;BME280;12420;42.676;23.262;2022-08-01T09:15:51;94434.81;;;24.23;49.06
12077;BME280;12420;42.676;23.262;2022-08-01T09:18:32;94399.66;;;24.00;48.37
12077;BME280;12420;42.676;23.262;2022-08-01T09:21:15;94402.78;;;23.93;49.16
12077;BME280;12420;42.676;23.262;2022-08-01T09:23:44;94442.44;;;24.20;46.82
12077;BME280;12420;42.676;23.262;2022-08-01T09:26:12;94389.78;;;23.88;48.11
12077;BME280;12420;42.676;23.262;2022-08-01T09:28:41;94400.66;;;24.19;48.38
12077;BME280;12420;42.676;23.262;2022-08-01T09:31:09;94432.50;;;24.59;48.86
12077;BME280;12420;42.676;23.262;2022-08-01T09:33:50;94432.19;;;24.53;49.34
12077;BME280;12420;42.676;23.262;2022-08-01T09:36:19;94436.19;;;24.36;48.44
12077;BME280;12420;42.676;23.262;2022-08-01T09:38:47;94425.56;;;24.48;47.94
12077;BME280;12420;42.676;23.262;2022-08-01T09:41:14;94447.47;;;24.61;49.38
12077;BME280;12420;42.676;23.262;2022-08-01T09:43:48;94409.06;;;24.44;49.48
12077;BME280;12420;42.676;23.262;2022-08-01T09:46:16;94432.06;;;24.64;50.84
12077;BME280;12420;42.676;23.262;2022-08-01T09:48:57;94435.78;;;24.81;50.70
12077;BME280;12420;42.676;23.262;2022-08-01T09:51:31;94379.28;;;24.55;50.79
12077;BME280;12420;42.676;23.262;2022-08-01T09:53:58;94436.28;;;24.91;50.61
12077;BME280;12420;42.676;23.262;2022-08-01T09:56:25;94425.91;;;24.68;50.73
12077;BME280;12420;42.676;23.262;2022-08-01T09:58:54;94402.22;;;24.61;50.92
12077;BME280;12420;42.676;23.262;2022-08-01T10:01:21;94427.88;;;24.93;48.01
12077;BME280;12420;42.676;23.262;2022-08-01T10:04:05;94422.78;;;25.17;47.67
12077;BME280;12420;42.676;23.262;2022-08-01T10:06:33;94419.84;;;25.59;48.56
12077;BME280;12420;42.676;23.262;2022-08-01T10:09:01;94417.56;;;25.85;47.38
12077;BME280;12420;42.676;23.262;2022-08-01T10:11:28;94406.88;;;25.69;45.36
12077;BME280;12420;42.676;23.262;2022-08-01T10:13:58;94445.84;;;25.69;47.16
12077;BME280;12420;42.676;23.262;2022-08-01T10:16:26;94416.91;;;25.56;47.96
12077;BME280;12420;42.676;23.262;2022-08-01T10:18:53;94436.81;;;25.72;45.99
12077;BME280;12420;42.676;23.262;2022-08-01T10:21:23;94417.88;;;25.77;45.20
12077;BME280;12420;42.676;23.262;2022-08-01T10:23:55;94408.66;;;25.47;46.01
12077;BME280;12420;42.676;23.262;2022-08-01T10:26:25;94410.44;;;25.40;46.47
12077;BME280;12420;42.676;23.262;2022-08-01T10:28:53;94414.22;;;25.45;46.23
12077;BME280;12420;42.676;23.262;2022-08-01T10:31:22;94429.56;;;25.26;46.63
12077;BME280;12420;42.676;23.262;2022-08-01T10:33:50;94401.69;;;25.20;47.01
12077;BME280;12420;42.676;23.262;2022-08-01T10:36:19;94422.44;;;25.25;46.79
12077;BME280;12420;42.676;23.262;2022-08-01T10:38:48;94418.84;;;25.38;46.64
12077;BME280;12420;42.676;23.262;2022-08-01T10:41:18;94407.00;;;25.42;46.31
12077;BME280;12420;42.676;23.262;2022-08-01T10:43:45;94418.84;;;25.38;46.68
12077;BME280;12420;42.676;23.262;2022-08-01T10:46:12;94386.16;;;25.07;46.15
12077;BME280;12420;42.676;23.262;2022-08-01T10:48:44;94401.34;;;25.42;46.38
12077;BME280;12420;42.676;23.262;2022-08-01T10:51:14;94381.34;;;24.96;46.95
12077;BME280;12420;42.676;23.262;2022-08-01T10:53:46;94389.50;;;25.18;47.43
12077;BME280;12420;42.676;23.262;2022-08-01T10:56:14;94374.31;;;24.97;46.93
12077;BME280;12420;42.676;23.262;2022-08-01T10:58:46;94403.72;;;25.47;47.13
12077;BME280;12420;42.676;23.262;2022-08-01T11:01:21;94377.03;;;25.09;46.70
12077;BME280;12420;42.676;23.262;2022-08-01T11:04:13;94366.63;;;25.13;47.24
12077;BME280;12420;42.676;23.262;2022-08-01T11:06:44;94389.16;;;25.39;47.29
12077;BME280;12420;42.676;23.262;2022-08-01T11:09:38;94389.66;;;25.49;46.79
12077;BME280;12420;42.676;23.262;2022-08-01T11:12:08;94382.34;;;25.44;46.63
12077;BME280;12420;42.676;23.262;2022-08-01T11:17:44;94378.72;;;25.58;46.37
12077;BME280;12420;42.676;23.262;2022-08-01T11:20:16;94382.63;;;25.80;46.09
12077;BME280;12420;42.676;23.262;2022-08-01T11:26:20;94381.13;;;25.79;46.02
12077;BME280;12420;42.676;23.262;2022-08-01T11:29:12;94375.28;;;25.75;47.25
12077;BME280;12420;42.676;23.262;2022-08-01T11:31:39;94375.22;;;25.59;47.44
12077;BME280;12420;42.676;23.262;2022-08-01T11:34:08;94363.94;;;25.75;46.81
12077;BME280;12420;42.676;23.262;2022-08-01T11:36:35;94376.91;;;25.94;46.19
12077;BME280;12420;42.676;23.262;2022-08-01T11:39:16;94369.03;;;25.63;46.68
12077;BME280;12420;42.676;23.262;2022-08-01T11:41:45;94383.03;;;25.88;47.27
12077;BME280;12420;42.676;23.262;2022-08-01T11:44:23;94389.91;;;25.99;46.51
12077;BME280;12420;42.676;23.262;2022-08-01T11:46:58;94384.19;;;26.29;45.71
12077;BME280;12420;42.676;23.262;2022-08-01T11:49:43;94385.19;;;26.51;44.96
12077;BME280;12420;42.676;23.262;2022-08-01T11:52:13;94379.88;;;26.44;44.62
12077;BME280;12420;42.676;23.262;2022-08-01T11:54:42;94386.09;;;26.40;45.04
12077;BME280;12420;42.676;23.262;2022-08-01T11:57:11;94368.97;;;26.22;45.43
12077;BME280;12420;42.676;23.262;2022-08-01T11:59:41;94372.53;;;26.07;46.46
12077;BME280;12420;42.676;23.262;2022-08-01T12:02:19;94387.19;;;26.17;46.67
12077;BME280;12420;42.676;23.262;2022-08-01T12:04:50;94373.66;;;26.31;45.76
12077;BME280;12420;42.676;23.262;2022-08-01T12:07:18;94375.47;;;26.40;46.45
12077;BME280;12420;42.676;23.262;2022-08-01T12:09:46;94372.25;;;26.32;45.61
12077;BME280;12420;42.676;23.262;2022-08-01T12:12:15;94364.31;;;26.29;45.33
12077;BME280;12420;42.676;23.262;2022-08-01T12:14:45;94366.59;;;26.01;45.70
12077;BME280;12420;42.676;23.262;2022-08-01T12:17:12;94379.03;;;26.09;45.43
12077;BME280;12420;42.676;23.262;2022-08-01T12:19:40;94378.28;;;26.09;45.46
12077;BME280;12420;42.676;23.262;2022-08-01T12:22:24;94374.00;;;25.78;46.50
12077;BME280;12420;42.676;23.262;2022-08-01T12:24:52;94333.13;;;25.67;46.45
12077;BME280;12420;42.676;23.262;2022-08-01T12:27:29;94367.56;;;25.91;47.28
12077;BME280;12420;42.676;23.262;2022-08-01T12:29:57;94378.09;;;26.05;45.52
12077;BME280;12420;42.676;23.262;2022-08-01T12:32:27;94343.00;;;25.82;45.65
12077;BME280;12420;42.676;23.262;2022-08-01T12:35:00;94362.69;;;25.78;46.21
12077;BME280;12420;42.676;23.262;2022-08-01T12:37:29;94284.75;;;25.33;47.17
12077;BME280;12420;42.676;23.262;2022-08-01T12:39:59;94311.81;;;25.82;46.19
12077;BME280;12420;42.676;23.262;2022-08-01T12:42:26;94345.72;;;26.41;45.23
12077;BME280;12420;42.676;23.262;2022-08-01T12:44:54;94363.50;;;26.58;44.73
12077;BME280;12420;42.676;23.262;2022-08-01T12:47:21;94370.44;;;26.71;44.80
12077;BME280;12420;42.676;23.262;2022-08-01T12:49:49;94370.06;;;26.47;44.47
12077;BME280;12420;42.676;23.262;2022-08-01T12:52:17;94365.94;;;26.50;44.38
12077;BME280;12420;42.676;23.262;2022-08-01T12:55:05;94363.94;;;26.68;45.11
12077;BME280;12420;42.676;23.262;2022-08-01T12:57:34;94359.91;;;27.07;43.66
12077;BME280;12420;42.676;23.262;2022-08-01T13:00:22;94357.31;;;27.47;42.88
12077;BME280;12420;42.676;23.262;2022-08-01T13:02:50;94356.03;;;27.16;42.46
12077;BME280;12420;42.676;23.262;2022-08-01T13:05:18;94361.69;;;27.32;42.83
12077;BME280;12420;42.676;23.262;2022-08-01T13:07:47;94359.91;;;27.41;42.72
12077;BME280;12420;42.676;23.262;2022-08-01T13:10:25;94361.72;;;27.16;42.61
12077;BME280;12420;42.676;23.262;2022-08-01T13:12:53;94356.25;;;27.20;42.94